Terminal Aerodrome Forecast
Issued by NWS Tuscon, AZ

Home | Current Version | Previous Version | Text Only | Print | Product List | Glossary On
Versions: 1 2 3 4 5 6 7 8 9 10 11 12 13 14 15 16 17 18 19 20
000
FTUS45 KTWC 310520
TAFTUS
TAF
KTUS 310520Z 3106/0106 22006KT P6SM FEW080 SCT150 SCT250
     FM310800 15008KT P6SM FEW150 SCT250
     FM312000 25010KT P6SM VCSH SCT090 SCT150
     FM010300 20007KT P6SM VCSH SCT090 BKN120=

USA.gov is the U.S. government's official web portal to all federal, state and local government web resources and services.